createdAt,value
2022-12-08T00:01:08.519Z,87.21
2022-12-08T00:03:39.651Z,87.53
2022-12-08T00:06:34.381Z,87.70
2022-12-08T00:09:23.019Z,87.99
2022-12-08T00:11:56.071Z,88.10
2022-12-08T00:14:26.095Z,87.89
2022-12-08T00:16:56.780Z,88.04
2022-12-08T00:19:27.853Z,88.11
2022-12-08T00:21:58.667Z,87.99
2022-12-08T00:24:34.685Z,87.95
2022-12-08T00:27:05.263Z,87.93
2022-12-08T00:29:35.729Z,87.98
2022-12-08T00:32:06.784Z,88.03
2022-12-08T00:34:37.399Z,88.18
2022-12-08T00:37:07.830Z,88.06
2022-12-08T00:39:38.396Z,88.19
2022-12-08T00:42:15.347Z,88.23
2022-12-08T00:44:48.098Z,88.46
2022-12-08T00:47:23.441Z,88.62
2022-12-08T00:49:55.258Z,88.65
2022-12-08T00:52:25.818Z,88.62
2022-12-08T00:54:56.262Z,88.49
2022-12-08T00:57:26.700Z,88.29
2022-12-08T00:59:57.430Z,88.39
2022-12-08T01:02:27.953Z,88.43
2022-12-08T01:04:58.360Z,88.48
2022-12-08T01:07:30.263Z,88.38
2022-12-08T01:10:00.723Z,88.33
2022-12-08T01:12:34.151Z,88.17
2022-12-08T01:15:04.782Z,88.10
2022-12-08T01:17:35.326Z,88.19
2022-12-08T01:20:07.482Z,88.23
2022-12-08T01:22:37.920Z,88.14
2022-12-08T01:25:10.058Z,88.13
2022-12-08T01:27:40.554Z,88.09
2022-12-08T01:30:13.482Z,87.89
2022-12-08T01:32:42.487Z,87.86
2022-12-08T01:35:13.667Z,87.77
2022-12-08T01:37:44.141Z,87.82
2022-12-08T01:40:14.749Z,87.85
2022-12-08T01:42:45.216Z,87.88
2022-12-08T01:45:22.731Z,87.96
2022-12-08T01:47:55.328Z,88.12
2022-12-08T01:50:26.281Z,88.12
2022-12-08T01:52:58.577Z,87.98
2022-12-08T01:55:32.313Z,87.92
2022-12-08T01:58:06.516Z,87.87
2022-12-08T02:00:36.916Z,87.79
2022-12-08T02:03:10.343Z,87.71
2022-12-08T02:05:42.157Z,87.70
2022-12-08T02:08:14.107Z,87.69
2022-12-08T02:10:44.940Z,87.79
2022-12-08T02:13:18.718Z,87.90
2022-12-08T02:15:55.508Z,87.84
2022-12-08T02:18:36.236Z,87.80
2022-12-08T02:21:10.994Z,87.71
2022-12-08T02:23:50.486Z,87.75
2022-12-08T02:26:50.436Z,87.66
2022-12-08T02:29:57.628Z,87.65
2022-12-08T02:32:45.835Z,87.61
2022-12-08T02:35:18.987Z,87.70
2022-12-08T02:37:55.269Z,87.77
2022-12-08T02:40:29.550Z,87.70
2022-12-08T02:43:01.768Z,87.76
2022-12-08T02:45:34.841Z,87.99
2022-12-08T02:48:05.805Z,88.17
2022-12-08T02:50:36.192Z,88.45
2022-12-08T02:55:41.599Z,88.42
2022-12-08T02:58:35.320Z,88.52
2022-12-08T03:01:21.251Z,88.60
2022-12-08T03:03:58.129Z,88.55
2022-12-08T03:06:33.745Z,88.44
2022-12-08T03:09:09.696Z,88.45
2022-12-08T03:11:43.646Z,88.40
2022-12-08T03:14:17.560Z,88.32
2022-12-08T03:16:50.016Z,88.26
2022-12-08T03:19:22.671Z,88.25
2022-12-08T03:22:00.387Z,88.10
2022-12-08T03:24:31.450Z,87.92
2022-12-08T03:27:04.900Z,88.04
2022-12-08T03:29:35.589Z,88.03
2022-12-08T03:32:11.982Z,88.18
2022-12-08T03:34:44.427Z,88.24
2022-12-08T03:37:15.012Z,88.38
2022-12-08T03:39:45.459Z,88.67
2022-12-08T03:42:15.913Z,88.80
2022-12-08T03:44:46.247Z,88.71
2022-12-08T03:47:16.606Z,88.53
2022-12-08T03:49:47.117Z,88.52
2022-12-08T03:52:17.627Z,88.41
2022-12-08T03:54:48.038Z,88.45
2022-12-08T03:57:18.469Z,88.32
2022-12-08T03:59:49.019Z,88.34
2022-12-08T04:02:19.661Z,88.44
2022-12-08T04:04:50.274Z,88.28
2022-12-08T04:07:20.725Z,88.32
2022-12-08T04:09:51.093Z,88.36
2022-12-08T04:12:21.592Z,88.23
2022-12-08T04:14:52.030Z,88.39
2022-12-08T04:17:22.448Z,88.41
2022-12-08T04:19:52.926Z,88.46
2022-12-08T04:22:23.834Z,88.42
2022-12-08T04:24:54.511Z,88.36
2022-12-08T04:27:24.953Z,88.41
2022-12-08T04:29:55.375Z,88.43
2022-12-08T04:32:25.904Z,88.53
2022-12-08T04:34:56.336Z,88.51
2022-12-08T04:37:26.787Z,88.37
2022-12-08T04:39:57.345Z,88.38
2022-12-08T04:42:27.737Z,88.34
2022-12-08T04:44:58.139Z,88.29
2022-12-08T04:47:28.543Z,88.28
2022-12-08T04:49:58.947Z,88.40
2022-12-08T04:52:29.768Z,88.54
2022-12-08T04:55:00.266Z,88.53
2022-12-08T04:57:30.890Z,88.44
2022-12-08T05:00:01.631Z,88.45
2022-12-08T05:02:32.741Z,88.45
2022-12-08T05:05:03.243Z,88.42
2022-12-08T05:07:33.732Z,88.50
2022-12-08T05:10:04.531Z,88.46
2022-12-08T05:12:35.120Z,88.53
2022-12-08T05:15:06.781Z,88.43
2022-12-08T05:17:37.355Z,88.37
2022-12-08T05:20:10.060Z,88.39
2022-12-08T05:22:40.511Z,88.60
2022-12-08T05:25:11.848Z,88.62
2022-12-08T05:27:43.059Z,88.72
2022-12-08T05:30:14.081Z,88.74
2022-12-08T05:32:44.512Z,88.60
2022-12-08T05:35:15.065Z,88.53
2022-12-08T05:37:45.522Z,88.59
2022-12-08T05:40:16.279Z,88.58
2022-12-08T05:42:46.667Z,88.68
2022-12-08T05:45:17.198Z,88.79
2022-12-08T05:47:47.652Z,88.77
2022-12-08T05:50:18.081Z,88.72
2022-12-08T05:52:48.576Z,88.59
2022-12-08T05:55:19.302Z,88.69
2022-12-08T05:57:49.829Z,88.70
2022-12-08T06:00:22.650Z,88.90
2022-12-08T06:02:53.277Z,88.91
2022-12-08T06:05:23.806Z,88.96
2022-12-08T06:07:54.327Z,88.85
2022-12-08T06:10:24.837Z,88.79
2022-12-08T06:12:55.267Z,88.84
2022-12-08T06:15:25.672Z,88.83
2022-12-08T06:17:56.180Z,88.91
2022-12-08T06:20:26.619Z,88.93
2022-12-08T06:22:58.389Z,88.66
2022-12-08T06:25:28.961Z,88.61
2022-12-08T06:27:59.692Z,88.76
2022-12-08T06:30:30.181Z,88.69
2022-12-08T06:33:01.115Z,88.72
2022-12-08T06:35:31.558Z,88.69
2022-12-08T06:38:01.998Z,88.80
2022-12-08T06:40:32.447Z,88.76
2022-12-08T06:43:02.858Z,88.73
2022-12-08T06:45:33.313Z,88.71
2022-12-08T06:48:05.264Z,88.76
2022-12-08T06:50:36.013Z,88.78
2022-12-08T06:53:06.501Z,88.64
2022-12-08T06:58:29.439Z,88.64
2022-12-08T07:01:03.762Z,88.65
2022-12-08T07:03:34.222Z,88.68
2022-12-08T07:06:04.953Z,88.74
2022-12-08T07:08:35.887Z,88.63
2022-12-08T07:11:10.664Z,88.73
2022-12-08T07:13:41.283Z,88.65
2022-12-08T07:16:13.045Z,88.69
2022-12-08T07:18:43.959Z,88.53
2022-12-08T07:21:15.861Z,88.63
2022-12-08T07:23:52.708Z,88.70
2022-12-08T07:26:27.955Z,88.77
2022-12-08T07:28:58.399Z,88.79
2022-12-08T07:31:29.237Z,88.70
2022-12-08T07:33:59.956Z,88.68
2022-12-08T07:36:30.735Z,88.57
2022-12-08T07:39:01.149Z,88.64
2022-12-08T07:41:31.595Z,88.74
2022-12-08T07:44:02.019Z,88.74
2022-12-08T07:46:32.653Z,88.61
2022-12-08T07:49:03.249Z,88.60
2022-12-08T07:51:33.924Z,88.58
2022-12-08T07:54:04.393Z,88.65
2022-12-08T07:56:35.328Z,88.74
2022-12-08T07:59:05.735Z,88.65
2022-12-08T08:01:36.827Z,88.61
2022-12-08T08:04:07.735Z,88.32
2022-12-08T08:06:38.285Z,88.33
2022-12-08T08:09:08.835Z,88.27
2022-12-08T08:11:39.642Z,88.28
2022-12-08T08:14:12.449Z,88.42
2022-12-08T08:16:46.846Z,88.27
2022-12-08T08:19:17.372Z,88.24
2022-12-08T08:21:47.787Z,88.10
2022-12-08T08:24:18.299Z,88.08
2022-12-08T08:26:48.752Z,88.00
2022-12-08T08:29:19.168Z,88.03
2022-12-08T08:31:49.573Z,88.07
2022-12-08T08:34:20.033Z,87.94
2022-12-08T08:36:50.509Z,87.85
2022-12-08T08:39:21.234Z,87.83
2022-12-08T08:41:51.720Z,87.69
2022-12-08T08:44:22.244Z,87.75
2022-12-08T08:46:52.881Z,87.86
2022-12-08T08:49:23.490Z,87.81
2022-12-08T08:51:54.547Z,87.99
2022-12-08T08:54:25.001Z,87.92
2022-12-08T08:56:55.529Z,88.02
2022-12-08T08:59:26.225Z,87.84
2022-12-08T09:01:56.771Z,87.85
2022-12-08T09:04:28.635Z,87.85
2022-12-08T09:06:59.451Z,87.83
2022-12-08T09:09:30.890Z,87.96
2022-12-08T09:12:01.425Z,88.02
2022-12-08T09:14:31.872Z,87.97
2022-12-08T09:17:02.337Z,87.83
2022-12-08T09:19:32.895Z,87.92
2022-12-08T09:22:03.332Z,87.91
2022-12-08T09:24:33.726Z,87.88
2022-12-08T09:27:04.249Z,87.80
2022-12-08T09:29:36.367Z,87.82
2022-12-08T09:32:07.445Z,87.77
2022-12-08T09:34:37.826Z,87.91
2022-12-08T09:37:08.287Z,87.96
2022-12-08T09:39:38.735Z,87.88
2022-12-08T09:42:10.962Z,87.89
2022-12-08T09:50:39.072Z,88.06
2022-12-08T09:53:13.613Z,87.96
2022-12-08T09:55:47.579Z,88.02
2022-12-08T09:58:23.088Z,88.02
2022-12-08T10:00:53.879Z,87.92
2022-12-08T10:03:26.064Z,88.15
2022-12-08T10:06:22.876Z,88.24
2022-12-08T10:09:00.203Z,88.00
2022-12-08T10:11:36.599Z,87.92
2022-12-08T10:14:16.588Z,87.87
2022-12-08T10:16:49.653Z,88.01
2022-12-08T10:19:22.429Z,88.03
2022-12-08T10:21:53.035Z,87.97
2022-12-08T10:24:32.160Z,87.87
2022-12-08T10:27:02.845Z,87.79
2022-12-08T10:29:33.386Z,87.88
2022-12-08T10:32:07.248Z,87.67
2022-12-08T10:34:37.714Z,87.27
2022-12-08T10:37:11.379Z,87.35
2022-12-08T10:39:43.767Z,87.38
2022-12-08T10:42:22.124Z,87.15
2022-12-08T10:44:59.288Z,86.82
2022-12-08T10:47:30.488Z,86.58
2022-12-08T10:50:25.549Z,86.54
2022-12-08T10:52:59.862Z,86.48
2022-12-08T11:01:33.480Z,86.20
2022-12-08T11:04:05.389Z,86.25
2022-12-08T11:06:38.105Z,85.77
2022-12-08T11:09:24.205Z,85.37
2022-12-08T11:11:56.430Z,85.22
2022-12-08T11:14:28.856Z,85.09
2022-12-08T11:17:06.329Z,85.37
2022-12-08T11:19:39.786Z,85.22
2022-12-08T11:22:25.904Z,85.04
2022-12-08T11:25:10.325Z,85.17
2022-12-08T11:27:43.548Z,84.54
2022-12-08T11:30:19.243Z,84.12
2022-12-08T11:32:51.464Z,83.70
2022-12-08T11:35:25.727Z,83.91
2022-12-08T11:38:13.542Z,83.98
2022-12-08T11:40:47.907Z,83.98
2022-12-08T11:43:25.185Z,83.92
2022-12-08T11:45:59.022Z,83.65
2022-12-08T11:48:33.137Z,83.83
2022-12-08T11:51:06.796Z,83.70
2022-12-08T11:53:41.024Z,83.25
2022-12-08T11:56:17.049Z,82.88
2022-12-08T11:58:50.491Z,82.69
2022-12-08T12:01:23.839Z,82.31
2022-12-08T12:04:00.802Z,81.94
2022-12-08T12:06:54.700Z,82.30
2022-12-08T12:09:35.922Z,82.34
2022-12-08T12:12:16.728Z,82.33
2022-12-08T12:15:05.243Z,82.45
2022-12-08T12:17:43.571Z,82.56
2022-12-08T12:20:19.350Z,82.60
2022-12-08T12:22:52.932Z,82.45
2022-12-08T12:25:24.941Z,82.38
2022-12-08T12:27:57.620Z,81.83
2022-12-08T12:30:29.587Z,81.24
2022-12-08T12:33:02.003Z,81.06
2022-12-08T12:35:38.344Z,80.98
2022-12-08T12:38:31.701Z,80.65
2022-12-08T12:41:04.075Z,80.26
2022-12-08T12:43:36.182Z,80.39
2022-12-08T12:46:43.887Z,80.50
2022-12-08T12:49:46.034Z,80.72
2022-12-08T12:52:47.124Z,80.34
2022-12-08T12:55:52.098Z,80.46
2022-12-08T12:58:37.591Z,80.86
2022-12-08T13:01:42.914Z,80.81
2022-12-08T13:04:13.582Z,80.42
2022-12-08T13:06:47.070Z,80.43
2022-12-08T13:09:24.529Z,80.20
2022-12-08T13:11:57.714Z,80.18
2022-12-08T13:14:32.339Z,80.16
2022-12-08T13:17:05.381Z,80.11
2022-12-08T13:19:36.146Z,80.12
2022-12-08T13:22:06.600Z,80.16
2022-12-08T13:24:37.789Z,79.81
2022-12-08T13:27:33.316Z,79.57
2022-12-08T13:30:39.716Z,79.41
2022-12-08T13:33:18.148Z,78.86
2022-12-08T13:35:54.640Z,78.70
2022-12-08T13:38:29.225Z,79.07
2022-12-08T13:41:00.208Z,79.01
2022-12-08T13:43:51.081Z,79.14
2022-12-08T13:51:23.909Z,79.50
2022-12-08T13:54:16.390Z,79.56
2022-12-08T13:56:43.409Z,79.68
2022-12-08T13:58:19.121Z,79.76
2022-12-08T14:00:58.612Z,79.82
2022-12-08T14:03:29.507Z,79.66
2022-12-08T14:06:15.785Z,79.79
2022-12-08T14:09:10.399Z,79.82
2022-12-08T14:11:42.297Z,79.98
2022-12-08T14:15:01.335Z,80.06
2022-12-08T14:17:24.673Z,80.26
2022-12-08T14:19:59.969Z,80.06
2022-12-08T14:22:37.264Z,79.98
2022-12-08T14:25:13.219Z,80.28
2022-12-08T14:27:44.338Z,80.50
2022-12-08T14:30:22.634Z,80.60
2022-12-08T14:32:55.852Z,80.83
2022-12-08T14:35:28.342Z,81.09
2022-12-08T14:38:00.410Z,81.25
2022-12-08T14:40:33.686Z,81.44
2022-12-08T14:43:17.141Z,81.42
2022-12-08T14:45:53.326Z,81.61
2022-12-08T14:48:28.456Z,81.79
2022-12-08T14:51:08.270Z,82.09
2022-12-08T14:53:44.109Z,82.01
2022-12-08T14:56:21.204Z,81.79
2022-12-08T14:59:03.692Z,81.49
2022-12-08T15:01:34.650Z,81.28
2022-12-08T15:04:10.711Z,81.09
2022-12-08T15:06:48.490Z,81.14
2022-12-08T15:09:28.998Z,81.18
2022-12-08T15:12:04.428Z,81.09
2022-12-08T15:14:36.290Z,81.18
2022-12-08T15:17:31.331Z,81.16
2022-12-08T15:20:04.108Z,81.20
2022-12-08T15:22:34.881Z,81.37
2022-12-08T15:25:06.552Z,81.60
2022-12-08T15:27:49.659Z,81.55
2022-12-08T15:30:21.511Z,81.55
2022-12-08T15:32:52.744Z,81.80
2022-12-08T15:35:23.555Z,81.94
2022-12-08T15:37:53.991Z,82.06
2022-12-08T15:40:26.965Z,82.14
2022-12-08T15:42:55.886Z,82.51
2022-12-08T15:45:31.146Z,82.51
2022-12-08T15:48:01.639Z,82.57
2022-12-08T15:50:32.039Z,82.64
2022-12-08T15:53:05.202Z,82.86
2022-12-08T15:55:39.089Z,83.06
2022-12-08T15:58:52.250Z,83.17
2022-12-08T16:01:01.949Z,83.11
2022-12-08T16:09:29.599Z,83.18
2022-12-08T16:12:18.475Z,83.28
2022-12-08T16:17:43.390Z,83.24
2022-12-08T16:20:18.166Z,83.33
2022-12-08T16:22:56.814Z,83.31
2022-12-08T16:26:00.504Z,83.53
2022-12-08T16:28:52.864Z,83.58
2022-12-08T16:31:18.840Z,83.79
2022-12-08T16:33:53.144Z,83.74
2022-12-08T16:36:23.514Z,83.86
2022-12-08T16:38:53.935Z,83.91
2022-12-08T16:41:41.526Z,84.03
2022-12-08T16:44:11.889Z,83.87
2022-12-08T16:46:42.234Z,83.56
2022-12-08T16:49:15.482Z,83.67
2022-12-08T16:51:45.967Z,83.58
2022-12-08T16:54:16.380Z,83.37
2022-12-08T16:56:47.022Z,83.16
2022-12-08T16:59:17.430Z,82.89
2022-12-08T17:01:47.932Z,82.80
2022-12-08T17:04:33.696Z,82.93
2022-12-08T17:07:04.458Z,82.99
2022-12-08T17:09:34.902Z,82.98
2022-12-08T17:12:07.976Z,82.92
2022-12-08T17:14:38.427Z,82.96
2022-12-08T17:17:09.465Z,83.10
2022-12-08T17:19:40.044Z,83.21
2022-12-08T17:22:10.650Z,83.35
2022-12-08T17:24:41.096Z,83.38
2022-12-08T17:27:11.523Z,83.35
2022-12-08T17:29:42.048Z,83.25
2022-12-08T17:32:12.573Z,83.40
2022-12-08T17:34:43.032Z,83.63
2022-12-08T17:37:13.820Z,83.75
2022-12-08T17:39:49.751Z,83.82
2022-12-08T17:42:20.398Z,83.84
2022-12-08T17:44:50.804Z,83.96
2022-12-08T17:47:21.220Z,84.00
2022-12-08T17:49:56.011Z,84.25
2022-12-08T17:52:26.528Z,84.39
2022-12-08T17:54:57.196Z,84.53
2022-12-08T17:57:27.665Z,84.67
2022-12-08T17:59:58.198Z,84.66
2022-12-08T18:02:28.924Z,84.54
2022-12-08T18:04:59.428Z,84.48
2022-12-08T18:07:30.744Z,84.65
2022-12-08T18:10:01.234Z,84.73
2022-12-08T18:12:31.624Z,84.70
2022-12-08T18:15:02.155Z,84.67
2022-12-08T18:17:32.630Z,84.64
2022-12-08T18:20:03.299Z,84.64
2022-12-08T18:22:33.983Z,84.79
2022-12-08T18:25:04.459Z,84.77
2022-12-08T18:27:39.908Z,84.82
2022-12-08T18:30:18.133Z,85.04
2022-12-08T18:32:50.734Z,85.12
2022-12-08T18:35:24.626Z,85.17
2022-12-08T18:37:55.138Z,85.30
2022-12-08T18:40:25.580Z,85.38
2022-12-08T18:42:56.002Z,85.31
2022-12-08T18:45:26.430Z,85.31
2022-12-08T18:47:56.809Z,85.29
2022-12-08T18:50:27.339Z,85.16
2022-12-08T18:52:57.794Z,85.46
2022-12-08T18:55:28.289Z,85.53
2022-12-08T18:57:58.679Z,85.63
2022-12-08T19:00:29.134Z,85.51
2022-12-08T19:02:59.636Z,85.48
2022-12-08T19:05:30.194Z,85.50
2022-12-08T19:08:00.598Z,85.63
2022-12-08T19:10:32.161Z,85.74
2022-12-08T19:13:02.598Z,85.61
2022-12-08T19:15:33.336Z,85.68
2022-12-08T19:18:06.262Z,85.60
2022-12-08T19:20:36.714Z,85.63
2022-12-08T19:23:07.079Z,85.78
2022-12-08T19:25:37.694Z,85.58
2022-12-08T19:28:08.230Z,85.64
2022-12-08T19:30:38.867Z,85.57
2022-12-08T19:33:09.383Z,85.49
2022-12-08T19:35:46.250Z,85.54
2022-12-08T19:38:21.258Z,85.62
2022-12-08T19:41:09.232Z,85.51
2022-12-08T19:43:57.306Z,85.43
2022-12-08T19:46:27.961Z,85.47
2022-12-08T19:49:00.371Z,85.36
2022-12-08T19:51:33.219Z,85.45
2022-12-08T19:54:05.059Z,85.57
2022-12-08T19:56:42.252Z,85.62
2022-12-08T19:59:15.559Z,85.70
2022-12-08T20:01:48.061Z,85.65
2022-12-08T20:04:19.654Z,85.75
2022-12-08T20:06:50.984Z,85.71
2022-12-08T20:09:21.752Z,85.68
2022-12-08T20:11:54.612Z,85.71
2022-12-08T20:14:32.705Z,85.78
2022-12-08T20:20:28.172Z,86.12
2022-12-08T20:23:09.380Z,86.15
2022-12-08T20:25:47.047Z,86.27
2022-12-08T20:28:19.029Z,86.14
2022-12-08T20:30:49.822Z,86.06
2022-12-08T20:33:38.067Z,86.07
2022-12-08T20:36:12.893Z,86.21
2022-12-08T20:38:43.434Z,86.45
2022-12-08T20:41:19.491Z,86.25
2022-12-08T20:44:01.438Z,86.22
2022-12-08T20:46:33.324Z,86.25
2022-12-08T20:49:04.313Z,86.31
2022-12-08T20:51:35.563Z,86.19
2022-12-08T20:54:06.393Z,86.24
2022-12-08T20:56:37.112Z,86.25
2022-12-08T20:59:07.870Z,86.13
2022-12-08T21:01:38.800Z,86.16
2022-12-08T21:04:11.080Z,86.04
2022-12-08T21:06:41.824Z,86.12
2022-12-08T21:09:15.070Z,86.24
2022-12-08T21:11:46.320Z,86.19
2022-12-08T21:14:21.990Z,86.23
2022-12-08T21:16:57.136Z,86.18
2022-12-08T21:19:33.489Z,86.26
2022-12-08T21:22:05.094Z,86.29
2022-12-08T21:24:38.139Z,86.22
2022-12-08T21:27:12.921Z,86.20
2022-12-08T21:29:49.386Z,86.22
2022-12-08T21:32:25.640Z,86.31
2022-12-08T21:35:01.652Z,86.29
2022-12-08T21:37:33.178Z,86.35
2022-12-08T21:40:06.670Z,86.33
2022-12-08T21:42:45.509Z,86.25
2022-12-08T21:45:18.844Z,86.20
2022-12-08T21:47:51.170Z,86.18
2022-12-08T21:50:24.118Z,86.25
2022-12-08T21:52:57.108Z,86.33
2022-12-08T21:55:28.684Z,86.30
2022-12-08T21:58:02.299Z,86.27
2022-12-08T22:00:41.451Z,86.32
2022-12-08T22:03:16.632Z,86.34
2022-12-08T22:05:48.394Z,86.33
2022-12-08T22:16:18.381Z,86.74
2022-12-08T22:18:50.071Z,86.66
2022-12-08T22:21:20.729Z,86.73
2022-12-08T22:23:51.972Z,86.57
2022-12-08T22:26:24.142Z,86.54
2022-12-08T22:28:57.700Z,86.56
2022-12-08T22:31:28.482Z,86.71
2022-12-08T22:34:01.351Z,87.00
2022-12-08T22:36:31.911Z,86.99
2022-12-08T22:39:04.126Z,86.98
2022-12-08T22:41:34.809Z,86.93
2022-12-08T22:44:07.965Z,87.06
2022-12-08T22:46:38.631Z,87.05
2022-12-08T22:49:09.427Z,86.96
2022-12-08T22:51:40.305Z,86.94
2022-12-08T22:54:12.482Z,86.96
2022-12-08T22:56:43.098Z,87.02
2022-12-08T22:59:13.547Z,86.94
2022-12-08T23:01:43.933Z,87.03
2022-12-08T23:04:18.036Z,87.05
2022-12-08T23:06:48.988Z,87.00
2022-12-08T23:09:19.617Z,86.97
2022-12-08T23:11:50.060Z,87.10
2022-12-08T23:14:20.420Z,87.12
2022-12-08T23:16:51.305Z,87.13
2022-12-08T23:19:21.725Z,87.09
2022-12-08T23:21:52.171Z,87.04
2022-12-08T23:24:22.573Z,87.04
2022-12-08T23:26:53.139Z,87.00
2022-12-08T23:29:23.643Z,86.94
2022-12-08T23:31:54.189Z,86.92
2022-12-08T23:34:25.480Z,86.91
2022-12-08T23:36:56.213Z,86.99
2022-12-08T23:39:26.672Z,86.85
2022-12-08T23:41:57.358Z,86.77
2022-12-08T23:44:28.010Z,86.67
2022-12-08T23:46:58.771Z,86.63
2022-12-08T23:49:36.742Z,86.68
2022-12-08T23:52:07.571Z,86.81
2022-12-08T23:54:38.283Z,87.00
2022-12-08T23:57:08.911Z,87.01
2022-12-08T23:59:39.619Z,86.98
